CXPRP CYTZ-KBKL
Flight info
| Callsign | CXPRP |
|---|---|
| Flight time | 1h 35m |
| Altitude | 6500 |
| Route | WEST ALONG LAKE TO HAMILTON THEN SW TO PORT DOVER THEN CROSS LAKE SOUTH AND FOLLOW SOUTH SHORE LAKE ERIE TO THE FIELD |
| Aircraft | DA42/L-VGDW/C |
Departure
| Time | 2026-04-21 23:18 |
|---|---|
| Airport | Billy Bishop Toronto City Airport (CYTZ) |
Arrival
| Time | 2026-04-22 00:53 |
|---|---|
| Airport | Burke Lakefront Airport (KBKL) |
| Time | Latitude | Longitude | Altitude | Speed | Heading |
|---|---|---|---|---|---|
| 2026-04-21 23:10 | 43.63090 | -79.39798 | 232 ft | 0 kts | 142° |
| 2026-04-21 23:14 | 43.63079 | -79.39786 | 231 ft | 5 kts | 142° |
| 2026-04-21 23:14 | 43.63047 | -79.39729 | 230 ft | 8 kts | 107° |
| 2026-04-21 23:14 | 43.62988 | -79.39715 | 229 ft | 9 kts | 228° |
| 2026-04-21 23:15 | 43.62968 | -79.39816 | 229 ft | 11 kts | 264° |
| 2026-04-21 23:15 | 43.62974 | -79.39882 | 231 ft | 4 kts | 298° |
| 2026-04-21 23:15 | 43.62997 | -79.39938 | 232 ft | 8 kts | 297° |
| 2026-04-21 23:15 | 43.63024 | -79.40033 | 232 ft | 11 kts | 270° |
| 2026-04-21 23:16 | 43.62964 | -79.40166 | 233 ft | 16 kts | 217° |
| 2026-04-21 23:16 | 43.62873 | -79.40273 | 232 ft | 15 kts | 220° |
| 2026-04-21 23:16 | 43.62819 | -79.40335 | 232 ft | 6 kts | 208° |
| 2026-04-21 23:16 | 43.62809 | -79.40334 | 233 ft | 0 kts | 145° |
| 2026-04-21 23:17 | 43.62807 | -79.40332 | 233 ft | 0 kts | 160° |
| 2026-04-21 23:17 | 43.62763 | -79.40282 | 233 ft | 16 kts | 84° |
| 2026-04-21 23:17 | 43.62847 | -79.39924 | 230 ft | 70 kts | 72° |
| 2026-04-21 23:18 | 43.63027 | -79.39193 | 475 ft | 78 kts | 74° |
| 2026-04-21 23:18 | 43.63204 | -79.38477 | 746 ft | 81 kts | 77° |
| 2026-04-21 23:18 | 43.63242 | -79.37697 | 939 ft | 88 kts | 122° |
| 2026-04-21 23:18 | 43.62648 | -79.37231 | 1112 ft | 100 kts | 161° |
| 2026-04-21 23:19 | 43.61979 | -79.37273 | 1279 ft | 106 kts | 211° |
| 2026-04-21 23:19 | 43.61727 | -79.38371 | 1306 ft | 126 kts | 265° |
| 2026-04-21 23:19 | 43.61700 | -79.39687 | 1170 ft | 140 kts | 265° |
| 2026-04-21 23:19 | 43.61631 | -79.41070 | 974 ft | 146 kts | 265° |
| 2026-04-21 23:20 | 43.62001 | -79.42183 | 980 ft | 122 kts | 339° |
| 2026-04-21 23:20 | 43.62552 | -79.41763 | 738 ft | 93 kts | 82° |
| 2026-04-21 23:20 | 43.62614 | -79.40878 | 442 ft | 82 kts | 75° |
| 2026-04-21 23:20 | 43.62783 | -79.40197 | 241 ft | 64 kts | 72° |
| 2026-04-21 23:21 | 43.62927 | -79.39594 | 229 ft | 75 kts | 70° |
| 2026-04-21 23:21 | 43.63112 | -79.38860 | 464 ft | 80 kts | 75° |
| 2026-04-21 23:21 | 43.63053 | -79.38139 | 739 ft | 83 kts | 121° |
| 2026-04-21 23:21 | 43.62487 | -79.37705 | 1016 ft | 90 kts | 163° |
| 2026-04-21 23:22 | 43.61896 | -79.37467 | 1331 ft | 85 kts | 161° |
| 2026-04-21 23:22 | 43.61289 | -79.37226 | 1612 ft | 86 kts | 165° |
| 2026-04-21 23:22 | 43.60670 | -79.37022 | 1869 ft | 86 kts | 172° |
| 2026-04-21 23:22 | 43.60024 | -79.36901 | 2159 ft | 85 kts | 176° |
| 2026-04-21 23:23 | 43.59404 | -79.36822 | 2383 ft | 87 kts | 179° |
| 2026-04-21 23:23 | 43.58791 | -79.36770 | 2641 ft | 87 kts | 176° |
| 2026-04-21 23:23 | 43.58173 | -79.36526 | 2880 ft | 89 kts | 172° |
| 2026-04-21 23:23 | 43.57609 | -79.36294 | 3106 ft | 88 kts | 174° |
| 2026-04-21 23:24 | 43.56909 | -79.36083 | 3319 ft | 90 kts | 182° |
| 2026-04-21 23:24 | 43.56261 | -79.36028 | 3506 ft | 92 kts | 189° |
| 2026-04-21 23:24 | 43.55596 | -79.36277 | 3527 ft | 95 kts | 218° |
| 2026-04-21 23:24 | 43.55212 | -79.37092 | 3478 ft | 99 kts | 242° |
| 2026-04-21 23:25 | 43.54909 | -79.37929 | 3511 ft | 95 kts | 238° |
| 2026-04-21 23:25 | 43.54620 | -79.38808 | 3485 ft | 99 kts | 245° |
| 2026-04-21 23:25 | 43.54440 | -79.39754 | 3421 ft | 103 kts | 253° |
| 2026-04-21 23:25 | 43.54261 | -79.40807 | 3393 ft | 100 kts | 249° |
| 2026-04-21 23:26 | 43.54115 | -79.41782 | 3416 ft | 99 kts | 253° |
| 2026-04-21 23:26 | 43.53980 | -79.42915 | 3311 ft | 120 kts | 255° |
| 2026-04-21 23:26 | 43.53835 | -79.44143 | 3303 ft | 128 kts | 255° |
| 2026-04-21 23:26 | 43.53651 | -79.45468 | 3363 ft | 127 kts | 252° |
| 2026-04-21 23:27 | 43.53473 | -79.46787 | 3399 ft | 130 kts | 254° |
| 2026-04-21 23:27 | 43.53225 | -79.48026 | 3491 ft | 125 kts | 246° |
| 2026-04-21 23:27 | 43.52902 | -79.49133 | 3502 ft | 128 kts | 245° |
| 2026-04-21 23:27 | 43.52507 | -79.50352 | 3527 ft | 128 kts | 242° |
| 2026-04-21 23:28 | 43.52074 | -79.51506 | 3514 ft | 129 kts | 236° |
| 2026-04-21 23:28 | 43.51578 | -79.52606 | 3542 ft | 129 kts | 239° |
| 2026-04-21 23:28 | 43.51116 | -79.53801 | 3449 ft | 134 kts | 233° |
| 2026-04-21 23:28 | 43.50435 | -79.54818 | 3461 ft | 131 kts | 227° |
| 2026-04-21 23:29 | 43.49801 | -79.55755 | 3537 ft | 128 kts | 227° |
| 2026-04-21 23:29 | 43.49179 | -79.56709 | 3508 ft | 131 kts | 228° |
| 2026-04-21 23:29 | 43.48505 | -79.57707 | 3503 ft | 131 kts | 229° |
| 2026-04-21 23:29 | 43.47864 | -79.58704 | 3484 ft | 132 kts | 227° |
| 2026-04-21 23:30 | 43.47185 | -79.59607 | 3460 ft | 132 kts | 224° |
| 2026-04-21 23:30 | 43.46458 | -79.60461 | 3442 ft | 132 kts | 221° |
| 2026-04-21 23:30 | 43.45748 | -79.61329 | 3438 ft | 131 kts | 224° |
| 2026-04-21 23:30 | 43.45066 | -79.62216 | 3464 ft | 129 kts | 224° |
| 2026-04-21 23:31 | 43.44400 | -79.63113 | 3463 ft | 130 kts | 226° |
| 2026-04-21 23:31 | 43.43736 | -79.63992 | 3449 ft | 130 kts | 224° |
| 2026-04-21 23:31 | 43.43026 | -79.64906 | 3419 ft | 132 kts | 225° |
| 2026-04-21 23:31 | 43.42344 | -79.65803 | 3445 ft | 130 kts | 224° |
| 2026-04-21 23:32 | 43.41627 | -79.66705 | 3471 ft | 130 kts | 222° |
| 2026-04-21 23:32 | 43.40910 | -79.67534 | 3348 ft | 137 kts | 218° |
| 2026-04-21 23:32 | 43.40225 | -79.68309 | 3430 ft | 130 kts | 223° |
| 2026-04-21 23:32 | 43.39567 | -79.69179 | 3446 ft | 129 kts | 225° |
| 2026-04-21 23:33 | 43.38899 | -79.70052 | 3438 ft | 130 kts | 224° |
| 2026-04-21 23:33 | 43.38226 | -79.70950 | 3391 ft | 133 kts | 220° |
| 2026-04-21 23:33 | 43.37463 | -79.71803 | 3383 ft | 131 kts | 224° |
| 2026-04-21 23:33 | 43.36716 | -79.72734 | 3353 ft | 132 kts | 223° |
| 2026-04-21 23:34 | 43.36052 | -79.73591 | 3410 ft | 129 kts | 224° |
| 2026-04-21 23:34 | 43.35387 | -79.74470 | 3429 ft | 129 kts | 224° |
| 2026-04-21 23:34 | 43.34737 | -79.75354 | 3427 ft | 130 kts | 228° |
| 2026-04-21 23:34 | 43.34111 | -79.76308 | 3390 ft | 133 kts | 228° |
| 2026-04-21 23:35 | 43.33501 | -79.77284 | 3427 ft | 130 kts | 229° |
| 2026-04-21 23:35 | 43.32920 | -79.78294 | 3441 ft | 130 kts | 232° |
| 2026-04-21 23:35 | 43.32381 | -79.79292 | 3481 ft | 128 kts | 233° |
| 2026-04-21 23:35 | 43.31852 | -79.80281 | 3483 ft | 129 kts | 231° |
| 2026-04-21 23:36 | 43.31282 | -79.81177 | 3517 ft | 128 kts | 226° |
| 2026-04-21 23:36 | 43.30597 | -79.82078 | 3463 ft | 132 kts | 222° |
| 2026-04-21 23:36 | 43.29858 | -79.82885 | 3440 ft | 132 kts | 218° |
| 2026-04-21 23:36 | 43.29101 | -79.83666 | 3447 ft | 130 kts | 219° |
| 2026-04-21 23:37 | 43.28308 | -79.84491 | 3429 ft | 131 kts | 219° |
| 2026-04-21 23:37 | 43.27536 | -79.85220 | 3478 ft | 128 kts | 214° |
| 2026-04-21 23:37 | 43.26704 | -79.85868 | 3471 ft | 130 kts | 213° |
| 2026-04-21 23:37 | 43.25986 | -79.86504 | 3488 ft | 129 kts | 218° |
| 2026-04-21 23:38 | 43.25234 | -79.87287 | 3502 ft | 130 kts | 218° |
| 2026-04-21 23:38 | 43.24484 | -79.88022 | 3570 ft | 127 kts | 217° |
| 2026-04-21 23:38 | 43.23764 | -79.88766 | 3552 ft | 129 kts | 223° |
| 2026-04-21 23:38 | 43.22939 | -79.89304 | 3638 ft | 130 kts | 199° |
| 2026-04-21 23:39 | 43.21973 | -79.89519 | 3611 ft | 136 kts | 195° |
| 2026-04-21 23:39 | 43.20925 | -79.89723 | 3443 ft | 144 kts | 195° |
| 2026-04-21 23:39 | 43.19887 | -79.89915 | 3582 ft | 134 kts | 193° |
| 2026-04-21 23:39 | 43.18889 | -79.90063 | 3492 ft | 139 kts | 195° |
| 2026-04-21 23:40 | 43.17907 | -79.90316 | 3478 ft | 137 kts | 198° |
| 2026-04-21 23:40 | 43.16928 | -79.90615 | 3475 ft | 135 kts | 200° |
| 2026-04-21 23:40 | 43.16006 | -79.90926 | 3477 ft | 135 kts | 200° |
| 2026-04-21 23:40 | 43.15019 | -79.91261 | 3475 ft | 134 kts | 200° |
| 2026-04-21 23:41 | 43.14115 | -79.91569 | 3474 ft | 134 kts | 200° |
| 2026-04-21 23:41 | 43.13178 | -79.91891 | 3476 ft | 133 kts | 200° |
| 2026-04-21 23:41 | 43.12242 | -79.92217 | 3473 ft | 134 kts | 200° |
| 2026-04-21 23:41 | 43.11326 | -79.92532 | 3468 ft | 134 kts | 200° |
| 2026-04-21 23:42 | 43.10384 | -79.92853 | 3469 ft | 133 kts | 200° |
| 2026-04-21 23:42 | 43.09436 | -79.93172 | 3472 ft | 134 kts | 200° |
| 2026-04-21 23:42 | 43.08496 | -79.93507 | 3480 ft | 133 kts | 203° |
| 2026-04-21 23:42 | 43.07568 | -79.94017 | 3472 ft | 132 kts | 210° |
| 2026-04-21 23:43 | 43.06717 | -79.94625 | 3550 ft | 127 kts | 213° |
| 2026-04-21 23:43 | 43.05930 | -79.95266 | 3589 ft | 127 kts | 216° |
| 2026-04-21 23:43 | 43.05153 | -79.95937 | 3500 ft | 134 kts | 216° |
| 2026-04-21 23:43 | 43.04303 | -79.96674 | 3470 ft | 133 kts | 215° |
| 2026-04-21 23:44 | 43.03451 | -79.97330 | 3447 ft | 134 kts | 212° |
| 2026-04-21 23:44 | 43.02555 | -79.97964 | 3473 ft | 131 kts | 211° |
| 2026-04-21 23:44 | 43.01681 | -79.98528 | 3409 ft | 134 kts | 209° |
| 2026-04-21 23:44 | 43.00821 | -79.99077 | 3444 ft | 130 kts | 208° |
| 2026-04-21 23:45 | 42.99930 | -79.99635 | 3444 ft | 130 kts | 210° |
| 2026-04-21 23:45 | 42.98284 | -80.00711 | 3443 ft | 130 kts | 211° |
| 2026-04-21 23:45 | 42.97427 | -80.01315 | 3455 ft | 129 kts | 211° |
| 2026-04-21 23:46 | 42.96529 | -80.01726 | 3392 ft | 136 kts | 199° |
| 2026-04-21 23:46 | 42.95577 | -80.01901 | 3445 ft | 135 kts | 191° |
| 2026-04-21 23:46 | 42.94621 | -80.01936 | 3489 ft | 135 kts | 186° |
| 2026-04-21 23:46 | 42.93643 | -80.01788 | 3456 ft | 142 kts | 179° |
| 2026-04-21 23:47 | 42.92644 | -80.01474 | 3480 ft | 142 kts | 173° |
| 2026-04-21 23:47 | 42.91669 | -80.01070 | 3550 ft | 140 kts | 173° |
| 2026-04-21 23:47 | 42.90747 | -80.00697 | 3464 ft | 146 kts | 174° |
| 2026-04-21 23:47 | 42.89687 | -80.00503 | 3508 ft | 136 kts | 191° |
| 2026-04-21 23:48 | 42.88787 | -80.00747 | 3540 ft | 131 kts | 204° |
| 2026-04-21 23:48 | 42.87889 | -80.01247 | 3526 ft | 131 kts | 210° |
| 2026-04-21 23:48 | 42.87033 | -80.01810 | 3527 ft | 130 kts | 211° |
| 2026-04-21 23:48 | 42.86198 | -80.02378 | 3549 ft | 129 kts | 211° |
| 2026-04-21 23:49 | 42.85325 | -80.02852 | 3558 ft | 133 kts | 202° |
| 2026-04-21 23:49 | 42.84423 | -80.03119 | 3551 ft | 135 kts | 197° |
| 2026-04-21 23:49 | 42.83475 | -80.03334 | 3537 ft | 136 kts | 196° |
| 2026-04-21 23:49 | 42.82538 | -80.03529 | 3521 ft | 136 kts | 196° |
| 2026-04-21 23:50 | 42.81611 | -80.03758 | 3500 ft | 135 kts | 199° |
| 2026-04-21 23:50 | 42.80745 | -80.04075 | 3557 ft | 130 kts | 204° |
| 2026-04-21 23:50 | 42.79945 | -80.04431 | 3495 ft | 136 kts | 198° |
| 2026-04-21 23:50 | 42.78993 | -80.04185 | 3470 ft | 147 kts | 172° |
| 2026-04-21 23:51 | 42.78052 | -80.03758 | 3460 ft | 148 kts | 170° |
| 2026-04-21 23:51 | 42.77061 | -80.03281 | 3458 ft | 148 kts | 170° |
| 2026-04-21 23:51 | 42.76117 | -80.02998 | 3456 ft | 143 kts | 180° |
| 2026-04-21 23:51 | 42.75167 | -80.02868 | 3457 ft | 140 kts | 185° |
| 2026-04-21 23:52 | 42.74242 | -80.02781 | 3458 ft | 140 kts | 185° |
| 2026-04-21 23:52 | 42.73267 | -80.02692 | 3461 ft | 139 kts | 185° |
| 2026-04-21 23:52 | 42.72352 | -80.02607 | 3464 ft | 139 kts | 185° |
| 2026-04-21 23:52 | 42.71389 | -80.02519 | 3466 ft | 139 kts | 185° |
| 2026-04-21 23:53 | 42.70488 | -80.02438 | 3466 ft | 139 kts | 185° |
| 2026-04-21 23:53 | 42.69547 | -80.02357 | 3465 ft | 139 kts | 185° |
| 2026-04-21 23:53 | 42.68591 | -80.02278 | 3461 ft | 139 kts | 185° |
| 2026-04-21 23:53 | 42.67626 | -80.02198 | 3461 ft | 139 kts | 185° |
| 2026-04-21 23:54 | 42.66705 | -80.02121 | 3462 ft | 139 kts | 185° |
| 2026-04-21 23:54 | 42.65721 | -80.02038 | 3461 ft | 139 kts | 185° |
| 2026-04-21 23:54 | 42.64787 | -80.01959 | 3459 ft | 139 kts | 185° |
| 2026-04-21 23:54 | 42.63854 | -80.01882 | 3462 ft | 139 kts | 185° |
| 2026-04-21 23:55 | 42.62907 | -80.01804 | 3468 ft | 139 kts | 185° |
| 2026-04-21 23:55 | 42.61957 | -80.01725 | 3468 ft | 139 kts | 185° |
| 2026-04-21 23:55 | 42.60976 | -80.01641 | 3467 ft | 139 kts | 185° |
| 2026-04-21 23:55 | 42.59975 | -80.01556 | 3464 ft | 140 kts | 185° |
| 2026-04-21 23:56 | 42.59014 | -80.01474 | 3462 ft | 139 kts | 185° |
| 2026-04-21 23:56 | 42.58049 | -80.01391 | 3463 ft | 139 kts | 185° |
| 2026-04-21 23:56 | 42.57077 | -80.01305 | 3465 ft | 139 kts | 185° |
| 2026-04-21 23:56 | 42.56093 | -80.01218 | 3468 ft | 139 kts | 185° |
| 2026-04-21 23:57 | 42.55127 | -80.01130 | 3469 ft | 139 kts | 185° |
| 2026-04-21 23:57 | 42.54165 | -80.01035 | 3468 ft | 139 kts | 185° |
| 2026-04-21 23:57 | 42.53245 | -80.00942 | 3468 ft | 139 kts | 185° |
| 2026-04-21 23:57 | 42.52269 | -80.00843 | 3467 ft | 139 kts | 185° |
| 2026-04-21 23:58 | 42.51201 | -80.00735 | 3470 ft | 138 kts | 185° |
| 2026-04-21 23:58 | 42.50182 | -80.00633 | 3472 ft | 138 kts | 185° |
| 2026-04-21 23:58 | 42.49220 | -80.00538 | 3476 ft | 139 kts | 185° |
| 2026-04-21 23:58 | 42.48207 | -80.00437 | 3475 ft | 139 kts | 185° |
| 2026-04-21 23:59 | 42.47219 | -80.00345 | 3475 ft | 139 kts | 185° |
| 2026-04-21 23:59 | 42.46243 | -80.00257 | 3469 ft | 140 kts | 185° |
| 2026-04-21 23:59 | 42.45301 | -80.00171 | 3468 ft | 140 kts | 185° |
| 2026-04-21 23:59 | 42.44263 | -80.00079 | 3465 ft | 140 kts | 185° |
| 2026-04-22 00:00 | 42.43221 | -79.99985 | 3467 ft | 140 kts | 185° |
| 2026-04-22 00:00 | 42.42252 | -79.99897 | 3470 ft | 139 kts | 185° |
| 2026-04-22 00:00 | 42.41318 | -79.99811 | 3475 ft | 140 kts | 185° |
| 2026-04-22 00:00 | 42.40286 | -79.99716 | 3475 ft | 141 kts | 185° |
| 2026-04-22 00:01 | 42.39274 | -79.99623 | 3472 ft | 140 kts | 185° |
| 2026-04-22 00:01 | 42.38277 | -79.99528 | 3472 ft | 139 kts | 185° |
| 2026-04-22 00:01 | 42.37389 | -79.99441 | 3470 ft | 139 kts | 185° |
| 2026-04-22 00:01 | 42.36435 | -79.99344 | 3473 ft | 138 kts | 185° |
| 2026-04-22 00:02 | 42.35494 | -79.99247 | 3474 ft | 138 kts | 185° |
| 2026-04-22 00:02 | 42.34517 | -79.99146 | 3474 ft | 139 kts | 185° |
| 2026-04-22 00:02 | 42.33506 | -79.99036 | 3475 ft | 139 kts | 185° |
| 2026-04-22 00:02 | 42.32525 | -79.98935 | 3477 ft | 138 kts | 185° |
| 2026-04-22 00:03 | 42.31513 | -79.98827 | 3478 ft | 139 kts | 185° |
| 2026-04-22 00:03 | 42.30496 | -79.98720 | 3476 ft | 138 kts | 185° |
| 2026-04-22 00:03 | 42.29438 | -79.98605 | 3480 ft | 138 kts | 186° |
| 2026-04-22 00:03 | 42.28422 | -79.98502 | 3481 ft | 138 kts | 186° |
| 2026-04-22 00:04 | 42.27382 | -79.98393 | 3476 ft | 138 kts | 186° |
| 2026-04-22 00:04 | 42.26348 | -79.98284 | 3475 ft | 138 kts | 186° |
| 2026-04-22 00:04 | 42.25341 | -79.98174 | 3475 ft | 138 kts | 185° |
| 2026-04-22 00:04 | 42.24352 | -79.98066 | 3479 ft | 137 kts | 186° |
| 2026-04-22 00:05 | 42.23341 | -79.97955 | 3477 ft | 137 kts | 186° |
| 2026-04-22 00:05 | 42.22378 | -79.97845 | 3483 ft | 138 kts | 186° |
| 2026-04-22 00:05 | 42.21422 | -79.97875 | 3481 ft | 132 kts | 199° |
| 2026-04-22 00:05 | 42.20639 | -79.98490 | 3537 ft | 122 kts | 233° |
| 2026-04-22 00:06 | 42.20164 | -79.99520 | 3498 ft | 126 kts | 239° |
| 2026-04-22 00:06 | 42.19722 | -80.00659 | 3484 ft | 126 kts | 242° |
| 2026-04-22 00:06 | 42.19355 | -80.01709 | 3485 ft | 126 kts | 244° |
| 2026-04-22 00:06 | 42.18972 | -80.02862 | 3483 ft | 126 kts | 244° |
| 2026-04-22 00:07 | 42.18579 | -80.04060 | 3487 ft | 126 kts | 244° |
| 2026-04-22 00:07 | 42.18202 | -80.05212 | 3485 ft | 127 kts | 244° |
| 2026-04-22 00:07 | 42.17809 | -80.06393 | 3487 ft | 126 kts | 244° |
| 2026-04-22 00:07 | 42.17429 | -80.07521 | 3487 ft | 126 kts | 244° |
| 2026-04-22 00:08 | 42.17030 | -80.08685 | 3486 ft | 126 kts | 244° |
| 2026-04-22 00:08 | 42.16661 | -80.09746 | 3484 ft | 126 kts | 244° |
| 2026-04-22 00:08 | 42.16301 | -80.10778 | 3487 ft | 126 kts | 244° |
| 2026-04-22 00:08 | 42.15911 | -80.11903 | 3488 ft | 127 kts | 244° |
| 2026-04-22 00:09 | 42.15531 | -80.12997 | 3479 ft | 127 kts | 244° |
| 2026-04-22 00:09 | 42.15173 | -80.14023 | 3483 ft | 126 kts | 244° |
| 2026-04-22 00:09 | 42.14814 | -80.15060 | 3484 ft | 126 kts | 244° |
| 2026-04-22 00:09 | 42.14465 | -80.16077 | 3485 ft | 127 kts | 244° |
| 2026-04-22 00:10 | 42.14092 | -80.17183 | 3484 ft | 127 kts | 244° |
| 2026-04-22 00:10 | 42.13740 | -80.18233 | 3483 ft | 127 kts | 244° |
| 2026-04-22 00:10 | 42.13395 | -80.19255 | 3479 ft | 127 kts | 244° |
| 2026-04-22 00:10 | 42.13036 | -80.20309 | 3476 ft | 127 kts | 244° |
| 2026-04-22 00:11 | 42.12678 | -80.21352 | 3471 ft | 127 kts | 244° |
| 2026-04-22 00:11 | 42.12324 | -80.22363 | 3468 ft | 127 kts | 244° |
| 2026-04-22 00:11 | 42.11957 | -80.23402 | 3467 ft | 126 kts | 244° |
| 2026-04-22 00:11 | 42.11607 | -80.24384 | 3469 ft | 126 kts | 244° |
| 2026-04-22 00:12 | 42.11236 | -80.25433 | 3473 ft | 126 kts | 244° |
| 2026-04-22 00:12 | 42.10865 | -80.26490 | 3475 ft | 126 kts | 244° |
| 2026-04-22 00:12 | 42.10512 | -80.27489 | 3475 ft | 126 kts | 244° |
| 2026-04-22 00:12 | 42.10147 | -80.28515 | 3474 ft | 126 kts | 244° |
| 2026-04-22 00:13 | 42.09779 | -80.29557 | 3472 ft | 126 kts | 244° |
| 2026-04-22 00:13 | 42.09424 | -80.30562 | 3477 ft | 126 kts | 244° |
| 2026-04-22 00:13 | 42.09056 | -80.31605 | 3473 ft | 127 kts | 245° |
| 2026-04-22 00:13 | 42.08675 | -80.32684 | 3471 ft | 126 kts | 244° |
| 2026-04-22 00:14 | 42.08287 | -80.33786 | 3466 ft | 126 kts | 244° |
| 2026-04-22 00:14 | 42.07893 | -80.34892 | 3469 ft | 126 kts | 244° |
| 2026-04-22 00:14 | 42.07518 | -80.35957 | 3469 ft | 125 kts | 244° |
| 2026-04-22 00:14 | 42.07121 | -80.37083 | 3465 ft | 125 kts | 245° |
| 2026-04-22 00:15 | 42.06724 | -80.38212 | 3469 ft | 125 kts | 245° |
| 2026-04-22 00:15 | 42.06330 | -80.39323 | 3472 ft | 126 kts | 245° |
| 2026-04-22 00:15 | 42.05935 | -80.40435 | 3473 ft | 126 kts | 245° |
| 2026-04-22 00:15 | 42.05535 | -80.41550 | 3467 ft | 127 kts | 245° |
| 2026-04-22 00:16 | 42.05133 | -80.42658 | 3462 ft | 127 kts | 244° |
| 2026-04-22 00:16 | 42.04731 | -80.43769 | 3461 ft | 127 kts | 245° |
| 2026-04-22 00:16 | 42.04322 | -80.44896 | 3453 ft | 127 kts | 245° |
| 2026-04-22 00:16 | 42.03912 | -80.46026 | 3448 ft | 126 kts | 244° |
| 2026-04-22 00:17 | 42.03511 | -80.47129 | 3451 ft | 125 kts | 245° |
| 2026-04-22 00:17 | 42.03108 | -80.48234 | 3452 ft | 125 kts | 245° |
| 2026-04-22 00:17 | 42.02721 | -80.49294 | 3453 ft | 125 kts | 245° |
| 2026-04-22 00:17 | 42.02324 | -80.50375 | 3453 ft | 125 kts | 245° |
| 2026-04-22 00:18 | 42.01941 | -80.51415 | 3453 ft | 126 kts | 245° |
| 2026-04-22 00:18 | 42.01561 | -80.52437 | 3453 ft | 126 kts | 245° |
| 2026-04-22 00:18 | 42.01185 | -80.53454 | 3451 ft | 125 kts | 244° |
| 2026-04-22 00:18 | 42.00805 | -80.54483 | 3455 ft | 125 kts | 245° |
| 2026-04-22 00:19 | 42.00437 | -80.55480 | 3455 ft | 126 kts | 245° |
| 2026-04-22 00:19 | 42.00026 | -80.56590 | 3449 ft | 125 kts | 245° |
| 2026-04-22 00:19 | 41.99636 | -80.57646 | 3449 ft | 125 kts | 245° |
| 2026-04-22 00:19 | 41.99230 | -80.58749 | 3452 ft | 125 kts | 245° |
| 2026-04-22 00:20 | 41.98837 | -80.59804 | 3452 ft | 125 kts | 245° |
| 2026-04-22 00:20 | 41.98418 | -80.60928 | 3455 ft | 125 kts | 245° |
| 2026-04-22 00:20 | 41.98026 | -80.61983 | 3457 ft | 125 kts | 245° |
| 2026-04-22 00:20 | 41.97624 | -80.63062 | 3455 ft | 125 kts | 245° |
| 2026-04-22 00:21 | 41.97225 | -80.64131 | 3456 ft | 125 kts | 245° |
| 2026-04-22 00:21 | 41.96823 | -80.65203 | 3455 ft | 125 kts | 244° |
| 2026-04-22 00:21 | 41.96426 | -80.66254 | 3461 ft | 126 kts | 244° |
| 2026-04-22 00:21 | 41.96024 | -80.67314 | 3459 ft | 126 kts | 244° |
| 2026-04-22 00:22 | 41.95617 | -80.68391 | 3460 ft | 126 kts | 244° |
| 2026-04-22 00:22 | 41.95209 | -80.69460 | 3458 ft | 126 kts | 244° |
| 2026-04-22 00:22 | 41.94802 | -80.70516 | 3459 ft | 126 kts | 244° |
| 2026-04-22 00:22 | 41.94413 | -80.71541 | 3458 ft | 126 kts | 244° |
| 2026-04-22 00:23 | 41.94032 | -80.72561 | 3460 ft | 125 kts | 244° |
| 2026-04-22 00:23 | 41.93653 | -80.73579 | 3459 ft | 125 kts | 244° |
| 2026-04-22 00:23 | 41.93257 | -80.74636 | 3457 ft | 125 kts | 244° |
| 2026-04-22 00:23 | 41.92866 | -80.75674 | 3457 ft | 125 kts | 244° |
| 2026-04-22 00:24 | 41.92490 | -80.76665 | 3459 ft | 125 kts | 245° |
| 2026-04-22 00:24 | 41.92132 | -80.77682 | 3589 ft | 118 kts | 248° |
| 2026-04-22 00:24 | 41.91870 | -80.78757 | 3500 ft | 127 kts | 253° |
| 2026-04-22 00:24 | 41.91618 | -80.79904 | 3458 ft | 128 kts | 253° |
| 2026-04-22 00:25 | 41.91352 | -80.81001 | 3478 ft | 127 kts | 251° |
| 2026-04-22 00:25 | 41.91027 | -80.82102 | 3508 ft | 125 kts | 249° |
| 2026-04-22 00:25 | 41.90731 | -80.83144 | 3473 ft | 128 kts | 250° |
| 2026-04-22 00:25 | 41.90516 | -80.84269 | 3535 ft | 124 kts | 265° |
| 2026-04-22 00:26 | 41.90521 | -80.85403 | 3524 ft | 125 kts | 258° |
| 2026-04-22 00:26 | 41.90278 | -80.86492 | 3504 ft | 127 kts | 251° |
| 2026-04-22 00:26 | 41.89963 | -80.87538 | 3517 ft | 125 kts | 248° |
| 2026-04-22 00:26 | 41.89590 | -80.88589 | 3508 ft | 126 kts | 244° |
| 2026-04-22 00:27 | 41.89188 | -80.89645 | 3459 ft | 129 kts | 244° |
| 2026-04-22 00:27 | 41.88793 | -80.90685 | 3529 ft | 124 kts | 245° |
| 2026-04-22 00:27 | 41.88414 | -80.91701 | 3426 ft | 130 kts | 245° |
| 2026-04-22 00:27 | 41.88043 | -80.92834 | 3438 ft | 127 kts | 248° |
| 2026-04-22 00:28 | 41.87703 | -80.93933 | 3450 ft | 125 kts | 250° |
| 2026-04-22 00:28 | 41.87387 | -80.94983 | 3464 ft | 125 kts | 250° |
| 2026-04-22 00:28 | 41.87074 | -80.96022 | 3462 ft | 125 kts | 250° |
| 2026-04-22 00:28 | 41.86748 | -80.97103 | 3461 ft | 126 kts | 250° |
| 2026-04-22 00:29 | 41.86405 | -80.98245 | 3463 ft | 125 kts | 250° |
| 2026-04-22 00:29 | 41.86070 | -80.99363 | 3460 ft | 126 kts | 250° |
| 2026-04-22 00:29 | 41.85749 | -81.00442 | 3457 ft | 126 kts | 250° |
| 2026-04-22 00:29 | 41.85418 | -81.01554 | 3456 ft | 127 kts | 250° |
| 2026-04-22 00:30 | 41.85103 | -81.02618 | 3454 ft | 127 kts | 250° |
| 2026-04-22 00:30 | 41.84791 | -81.03680 | 3458 ft | 127 kts | 250° |
| 2026-04-22 00:30 | 41.84480 | -81.04742 | 3463 ft | 126 kts | 250° |
| 2026-04-22 00:30 | 41.84165 | -81.05818 | 3459 ft | 126 kts | 250° |
| 2026-04-22 00:31 | 41.83846 | -81.06908 | 3455 ft | 126 kts | 250° |
| 2026-04-22 00:31 | 41.83535 | -81.07961 | 3453 ft | 125 kts | 250° |
| 2026-04-22 00:31 | 41.83236 | -81.08985 | 3454 ft | 125 kts | 250° |
| 2026-04-22 00:31 | 41.82924 | -81.10043 | 3457 ft | 125 kts | 250° |
| 2026-04-22 00:32 | 41.82600 | -81.11143 | 3459 ft | 125 kts | 250° |
| 2026-04-22 00:32 | 41.82281 | -81.12217 | 3461 ft | 125 kts | 250° |
| 2026-04-22 00:32 | 41.81963 | -81.13298 | 3462 ft | 125 kts | 250° |
| 2026-04-22 00:32 | 41.81634 | -81.14400 | 3462 ft | 125 kts | 250° |
| 2026-04-22 00:33 | 41.81322 | -81.15438 | 3459 ft | 126 kts | 250° |
| 2026-04-22 00:33 | 41.81006 | -81.16496 | 3453 ft | 125 kts | 250° |
| 2026-04-22 00:33 | 41.80692 | -81.17540 | 3459 ft | 125 kts | 250° |
| 2026-04-22 00:33 | 41.80380 | -81.18581 | 3458 ft | 125 kts | 250° |
| 2026-04-22 00:34 | 41.80061 | -81.19647 | 3463 ft | 124 kts | 250° |
| 2026-04-22 00:34 | 41.79743 | -81.20707 | 3461 ft | 125 kts | 250° |
| 2026-04-22 00:34 | 41.79424 | -81.21767 | 3463 ft | 125 kts | 250° |
| 2026-04-22 00:34 | 41.79092 | -81.22871 | 3464 ft | 125 kts | 250° |
| 2026-04-22 00:35 | 41.78768 | -81.23959 | 3469 ft | 124 kts | 249° |
| 2026-04-22 00:35 | 41.78342 | -81.25010 | 3488 ft | 125 kts | 241° |
| 2026-04-22 00:35 | 41.77834 | -81.25927 | 3454 ft | 126 kts | 237° |
| 2026-04-22 00:35 | 41.77249 | -81.26896 | 3484 ft | 125 kts | 238° |
| 2026-04-22 00:36 | 41.76771 | -81.27947 | 3482 ft | 124 kts | 245° |
| 2026-04-22 00:36 | 41.76446 | -81.29064 | 3398 ft | 127 kts | 253° |
| 2026-04-22 00:36 | 41.76054 | -81.30132 | 3417 ft | 127 kts | 239° |
| 2026-04-22 00:36 | 41.75470 | -81.31104 | 3462 ft | 125 kts | 234° |
| 2026-04-22 00:37 | 41.74826 | -81.31963 | 3516 ft | 125 kts | 230° |
| 2026-04-22 00:37 | 41.74219 | -81.32836 | 3501 ft | 125 kts | 239° |
| 2026-04-22 00:37 | 41.73707 | -81.33864 | 3473 ft | 126 kts | 242° |
| 2026-04-22 00:37 | 41.73236 | -81.34937 | 3517 ft | 124 kts | 244° |
| 2026-04-22 00:38 | 41.72755 | -81.35990 | 3539 ft | 124 kts | 240° |
| 2026-04-22 00:38 | 41.72268 | -81.36951 | 3518 ft | 126 kts | 241° |
| 2026-04-22 00:38 | 41.71759 | -81.37965 | 3546 ft | 125 kts | 239° |
| 2026-04-22 00:38 | 41.71213 | -81.38912 | 3632 ft | 121 kts | 237° |
| 2026-04-22 00:39 | 41.70739 | -81.39875 | 3661 ft | 123 kts | 242° |
| 2026-04-22 00:39 | 41.70228 | -81.40835 | 3643 ft | 126 kts | 238° |
| 2026-04-22 00:39 | 41.69642 | -81.41803 | 3534 ft | 132 kts | 236° |
| 2026-04-22 00:39 | 41.69004 | -81.42793 | 3440 ft | 135 kts | 232° |
| 2026-04-22 00:40 | 41.68342 | -81.43655 | 3454 ft | 131 kts | 230° |
| 2026-04-22 00:40 | 41.67645 | -81.44544 | 3461 ft | 129 kts | 230° |
| 2026-04-22 00:40 | 41.66982 | -81.45344 | 3462 ft | 129 kts | 231° |
| 2026-04-22 00:40 | 41.66275 | -81.46220 | 3446 ft | 129 kts | 230° |
| 2026-04-22 00:41 | 41.65582 | -81.47027 | 3431 ft | 130 kts | 227° |
| 2026-04-22 00:41 | 41.64895 | -81.47856 | 3443 ft | 128 kts | 231° |
| 2026-04-22 00:41 | 41.64250 | -81.48700 | 3496 ft | 125 kts | 232° |
| 2026-04-22 00:41 | 41.63595 | -81.49564 | 3490 ft | 127 kts | 231° |
| 2026-04-22 00:42 | 41.62957 | -81.50391 | 3449 ft | 129 kts | 232° |
| 2026-04-22 00:42 | 41.62277 | -81.51252 | 3449 ft | 130 kts | 227° |
| 2026-04-22 00:42 | 41.61528 | -81.52029 | 3421 ft | 131 kts | 225° |
| 2026-04-22 00:42 | 41.60737 | -81.52836 | 3179 ft | 142 kts | 225° |
| 2026-04-22 00:43 | 41.59929 | -81.53677 | 3027 ft | 142 kts | 224° |
| 2026-04-22 00:43 | 41.59119 | -81.54527 | 2771 ft | 141 kts | 225° |
| 2026-04-22 00:43 | 41.58301 | -81.55393 | 2458 ft | 143 kts | 225° |
| 2026-04-22 00:43 | 41.57568 | -81.56284 | 2224 ft | 136 kts | 229° |
| 2026-04-22 00:44 | 41.56947 | -81.57212 | 2034 ft | 110 kts | 236° |
| 2026-04-22 00:44 | 41.56519 | -81.57970 | 1988 ft | 89 kts | 239° |
| 2026-04-22 00:44 | 41.56188 | -81.58609 | 2013 ft | 79 kts | 239° |
| 2026-04-22 00:44 | 41.55879 | -81.59226 | 2023 ft | 77 kts | 241° |
| 2026-04-22 00:45 | 41.55599 | -81.59864 | 2021 ft | 78 kts | 243° |
| 2026-04-22 00:45 | 41.55310 | -81.60529 | 1940 ft | 81 kts | 243° |
| 2026-04-22 00:45 | 41.54998 | -81.61185 | 1874 ft | 83 kts | 239° |
| 2026-04-22 00:45 | 41.54680 | -81.61856 | 1785 ft | 84 kts | 242° |
| 2026-04-22 00:46 | 41.54362 | -81.62614 | 1693 ft | 84 kts | 243° |
| 2026-04-22 00:46 | 41.54070 | -81.63251 | 1635 ft | 75 kts | 240° |
| 2026-04-22 00:46 | 41.53765 | -81.63877 | 1501 ft | 76 kts | 239° |
| 2026-04-22 00:46 | 41.53480 | -81.64485 | 1398 ft | 75 kts | 239° |
| 2026-04-22 00:47 | 41.53191 | -81.65123 | 1235 ft | 81 kts | 238° |
| 2026-04-22 00:47 | 41.52887 | -81.65784 | 1097 ft | 81 kts | 238° |
| 2026-04-22 00:47 | 41.52576 | -81.66450 | 906 ft | 78 kts | 237° |
| 2026-04-22 00:47 | 41.52270 | -81.67084 | 747 ft | 74 kts | 236° |
| 2026-04-22 00:48 | 41.51965 | -81.67714 | 597 ft | 70 kts | 236° |
| 2026-04-22 00:48 | 41.51732 | -81.68194 | 584 ft | 63 kts | 239° |
| 2026-04-22 00:48 | 41.51469 | -81.68765 | 823 ft | 67 kts | 232° |
| 2026-04-22 00:48 | 41.51199 | -81.69337 | 1082 ft | 77 kts | 238° |
| 2026-04-22 00:49 | 41.51105 | -81.69994 | 1373 ft | 79 kts | 272° |
| 2026-04-22 00:49 | 41.51483 | -81.70692 | 1384 ft | 116 kts | 310° |
| 2026-04-22 00:49 | 41.52291 | -81.71216 | 1455 ft | 142 kts | 349° |
| 2026-04-22 00:49 | 41.53253 | -81.70603 | 1501 ft | 162 kts | 49° |
| 2026-04-22 00:50 | 41.53890 | -81.69332 | 1571 ft | 166 kts | 57° |
| 2026-04-22 00:50 | 41.54491 | -81.67987 | 1586 ft | 170 kts | 59° |
| 2026-04-22 00:50 | 41.55093 | -81.66623 | 1474 ft | 173 kts | 58° |
| 2026-04-22 00:50 | 41.55653 | -81.65314 | 1288 ft | 151 kts | 71° |
| 2026-04-22 00:51 | 41.55611 | -81.64111 | 1245 ft | 123 kts | 132° |
| 2026-04-22 00:51 | 41.54948 | -81.63805 | 1169 ft | 96 kts | 206° |
| 2026-04-22 00:51 | 41.54308 | -81.63889 | 1106 ft | 91 kts | 177° |
| 2026-04-22 00:51 | 41.53795 | -81.64014 | 1201 ft | 71 kts | 227° |
| 2026-04-22 00:52 | 41.53457 | -81.64604 | 1128 ft | 73 kts | 236° |
| 2026-04-22 00:52 | 41.53188 | -81.65189 | 1067 ft | 74 kts | 234° |
| 2026-04-22 00:52 | 41.52890 | -81.65775 | 984 ft | 76 kts | 235° |
| 2026-04-22 00:52 | 41.52591 | -81.66380 | 870 ft | 77 kts | 236° |
| 2026-04-22 00:53 | 41.52311 | -81.66989 | 733 ft | 75 kts | 233° |
| 2026-04-22 00:53 | 41.52025 | -81.67580 | 621 ft | 69 kts | 234° |
| 2026-04-22 00:53 | 41.51778 | -81.68096 | 579 ft | 56 kts | 234° |
| 2026-04-22 00:53 | 41.51633 | -81.68387 | 581 ft | 9 kts | 240° |
| 2026-04-22 00:54 | 41.51582 | -81.68403 | 581 ft | 9 kts | 146° |
| 2026-04-22 00:54 | 41.51577 | -81.68399 | 581 ft | 1 kts | 149° |
| 2026-04-22 00:54 | 41.51575 | -81.68398 | 581 ft | 1 kts | 154° |
| 2026-04-22 00:54 | 41.51549 | -81.68426 | 581 ft | 7 kts | 238° |
| 2026-04-22 00:55 | 41.51495 | -81.68542 | 581 ft | 19 kts | 237° |
| 2026-04-22 00:55 | 41.51418 | -81.68703 | 580 ft | 16 kts | 239° |
| 2026-04-22 00:55 | 41.51310 | -81.68747 | 582 ft | 1 kts | 237° |